Glen Allen, Alabama
Current Conditions -  °F | °C
As of 5:15 PM on Friday 19 Dec 2014 (Local Time) from KJFX Reporting Station
Clear Clear  
Wind Chill: 41°   Ceiling: Unl
Heat Index: 45°   Visibility: 10mi
Dew Point: 36°   Wind: 7mph
Humidity: 71%   Direction: 40°NE
Pressure: 30.18"   Gusts: NA
Location:  33.88°N, 87.74°W
Report Text: KJFX 192315Z AUTO 04006KT 10SM CLR 07/02 A3018 RMK A02 P-128
Loading
Personal Weather Stations






























Interactive Weather Map New forecast layout! Learn more

10-Day Weather Forecast

Advertisements
Track Severe Weather on mobile